Time;durP1;ratioP1;P1;durP2;ratioP2;P2;SDS_P1;SDS_P2;PMS_P1;PMS_P2;Temp;Humidity;BMP_temperature;BMP_pressure;BME280_temperature;BME280_humidity;BME280_pressure;Samples;Min_cycle;Max_cycle;Signal;HPM_P1;HPM_P2
2021/04/21 00:01:41;;;;;;;19.90;16.52;;;;;;;9.30;67.95;101706.84;5137239;27;20093;-41
2021/04/21 00:04:13;;;;;;;22.10;16.35;;;;;;;9.26;67.32;101703.72;5136866;27;20023;-41
2021/04/21 00:06:40;;;;;;;18.90;16.15;;;;;;;9.21;67.64;101703.50;5137681;27;20375;-41
2021/04/21 00:09:10;;;;;;;18.80;15.90;;;;;;;9.09;68.01;101705.13;5137030;27;20042;-41
2021/04/21 00:11:36;;;;;;;19.63;16.08;;;;;;;9.12;67.47;101706.56;5137063;27;20038;-41
2021/04/21 00:14:01;;;;;;;16.40;14.60;;;;;;;9.15;67.63;101698.91;5136934;27;20041;-41
2021/04/21 00:16:28;;;;;;;19.53;16.37;;;;;;;9.08;67.85;101706.16;5136531;27;20027;-41
2021/04/21 00:18:54;;;;;;;19.58;15.93;;;;;;;8.95;67.86;101704.22;5137080;27;20269;-41
2021/04/21 00:21:23;;;;;;;21.88;16.40;;;;;;;9.01;67.96;101708.78;5137481;27;20363;-41
2021/04/21 00:23:50;;;;;;;19.00;15.18;;;;;;;8.97;68.07;101702.13;5136796;27;20031;-41
2021/04/21 00:26:18;;;;;;;18.33;15.75;;;;;;;8.92;67.90;101701.91;5136585;27;20419;-41
2021/04/21 00:28:43;;;;;;;18.63;15.43;;;;;;;9.03;68.21;101704.06;5136684;27;20027;-41
2021/04/21 00:31:11;;;;;;;19.65;15.43;;;;;;;9.03;68.02;101705.91;5137028;27;20028;-41
2021/04/21 00:33:39;;;;;;;16.15;14.45;;;;;;;8.95;67.70;101698.81;5136304;27;20111;-40
2021/04/21 00:36:06;;;;;;;17.00;14.85;;;;;;;8.93;68.09;101705.41;5137169;27;20031;-40
2021/04/21 00:38:35;;;;;;;17.77;15.07;;;;;;;8.84;68.18;101701.25;5136840;27;20043;-40
2021/04/21 00:41:04;;;;;;;19.70;14.77;;;;;;;8.79;67.80;101701.84;5137335;27;20055;-40
2021/04/21 00:43:53;;;;;;;18.38;15.63;;;;;;;8.87;68.40;101700.84;5136180;27;20060;-40
2021/04/21 00:46:32;;;;;;;16.00;14.30;;;;;;;8.82;68.32;101701.44;5137135;27;20055;-40
2021/04/21 00:49:26;;;;;;;19.35;15.43;;;;;;;8.88;67.82;101705.19;5136153;27;20027;-40
2021/04/21 00:52:01;;;;;;;17.92;14.75;;;;;;;8.70;68.63;101703.03;5136667;27;20031;-40
2021/04/21 00:54:32;;;;;;;15.38;13.23;;;;;;;8.66;68.27;101702.56;5136411;27;20060;-40
2021/04/21 00:57:19;;;;;;;16.85;13.73;;;;;;;8.68;67.94;101707.75;5135999;27;20520;-40
2021/04/21 00:59:59;;;;;;;19.20;15.13;;;;;;;8.65;68.16;101697.41;5136034;27;20072;-40
2021/04/21 01:02:30;;;;;;;17.02;13.52;;;;;;;8.56;67.95;101702.09;5136475;27;20678;-40
2021/04/21 01:04:57;;;;;;;16.88;13.70;;;;;;;8.54;67.92;101703.31;5135943;27;20383;-40
2021/04/21 01:07:25;;;;;;;16.45;13.32;;;;;;;8.57;68.31;101695.66;5135503;27;20363;-40
2021/04/21 01:09:54;;;;;;;15.55;13.00;;;;;;;8.46;67.34;101698.91;5135900;27;20031;-40
2021/04/21 01:12:22;;;;;;;15.68;12.88;;;;;;;8.44;68.47;101691.03;5136566;27;20030;-40
2021/04/21 01:14:52;;;;;;;18.05;13.77;;;;;;;8.35;67.92;101700.25;5136476;27;20031;-40
2021/04/21 01:17:19;;;;;;;17.63;13.68;;;;;;;8.29;67.83;101694.78;5135409;27;20034;-40
2021/04/21 01:20:00;;;;;;;16.90;12.70;;;;;;;8.32;67.56;101694.41;5135884;27;20486;-40
2021/04/21 01:22:44;;;;;;;15.45;12.50;;;;;;;8.19;67.62;101693.28;5135585;27;20110;-40
2021/04/21 01:25:20;;;;;;;17.35;12.32;;;;;;;8.12;67.87;101684.31;5135276;27;20486;-40
2021/04/21 01:27:45;;;;;;;15.95;13.07;;;;;;;8.16;68.25;101687.47;5134982;27;20024;-40
2021/04/21 01:30:14;;;;;;;16.57;13.20;;;;;;;8.10;68.81;101680.13;5136134;27;20027;-40
2021/04/21 01:32:44;;;;;;;15.20;12.85;;;;;;;8.15;68.13;101680.38;5135405;27;20027;-40
2021/04/21 01:35:11;;;;;;;15.65;12.90;;;;;;;8.17;68.38;101679.16;5135318;27;20030;-40
2021/04/21 01:37:37;;;;;;;17.80;13.73;;;;;;;8.00;68.72;101684.00;5135805;27;20058;-40
2021/04/21 01:40:29;;;;;;;16.65;13.68;;;;;;;8.12;69.13;101688.88;5135942;27;20054;-40
2021/04/21 01:42:59;;;;;;;17.67;13.07;;;;;;;8.17;69.29;101694.50;5072416;28;20635;-40
2021/04/21 01:45:28;;;;;;;18.52;12.98;;;;;;;8.04;68.98;101694.38;5071856;28;20143;-40
2021/04/21 01:47:55;;;;;;;17.08;14.40;;;;;;;8.00;68.99;101696.63;5071479;28;20041;-40
2021/04/21 01:50:21;;;;;;;16.02;12.65;;;;;;;7.99;69.48;101697.66;5072117;28;20381;-40
2021/04/21 01:52:58;;;;;;;16.53;13.03;;;;;;;8.01;69.10;101695.63;5071496;28;20038;-40
2021/04/21 01:55:46;;;;;;;16.45;12.35;;;;;;;7.99;68.38;101700.34;5071448;28;20485;-40
2021/04/21 01:58:22;;;;;;;15.88;13.07;;;;;;;7.87;68.87;101694.66;5071666;28;20490;-40
2021/04/21 02:00:58;;;;;;;16.95;13.48;;;;;;;7.80;69.29;101696.44;5071482;28;20063;-40
2021/04/21 02:03:34;;;;;;;18.13;13.10;;;;;;;7.80;69.12;101688.34;5054529;28;20139;-40
2021/04/21 02:06:39;;;;;;;16.35;12.75;;;;;;;7.78;69.50;101695.81;5071539;28;20504;-40
2021/04/21 02:09:15;;;;;;;15.48;12.00;;;;;;;7.69;68.75;101705.84;5071215;28;20036;-40
2021/04/21 02:11:52;;;;;;;15.88;12.50;;;;;;;7.71;68.71;101706.50;5071565;28;20032;-40
2021/04/21 02:14:27;;;;;;;15.98;12.68;;;;;;;7.60;69.59;101707.00;5071739;28;20068;-40
2021/04/21 02:17:13;;;;;;;18.77;13.85;;;;;;;7.54;69.36;101701.53;5071380;28;20101;-40
2021/04/21 02:19:45;;;;;;;16.63;13.63;;;;;;;7.52;69.43;101706.28;5097932;27;20114;-40
2021/04/21 02:22:35;;;;;;;15.20;12.85;;;;;;;7.60;69.21;101703.47;5134863;27;20056;-40
2021/04/21 02:25:19;;;;;;;15.70;12.68;;;;;;;7.53;69.49;101700.72;5135104;27;20019;-40
2021/04/21 02:28:16;;;;;;;16.40;12.77;;;;;;;7.54;68.64;101701.53;5134740;27;20041;-40
2021/04/21 02:31:29;;;;;;;17.92;13.35;;;;;;;7.66;69.36;101714.31;5134348;27;20023;-40
2021/04/21 02:34:22;;;;;;;16.08;12.25;;;;;;;7.61;69.29;101708.69;5071278;28;20040;-40
2021/04/21 02:37:04;;;;;;;15.93;13.20;;;;;;;7.64;69.56;101707.44;5070736;28;20032;-40
2021/04/21 02:39:47;;;;;;;15.80;12.77;;;;;;;7.65;70.77;101711.81;5071062;28;20452;-40
2021/04/21 02:42:44;;;;;;;17.65;12.93;;;;;;;7.69;69.76;101708.53;5071457;28;20033;-40
2021/04/21 02:45:42;;;;;;;16.80;13.40;;;;;;;7.78;70.14;101703.88;5071072;28;20043;-40
2021/04/21 02:48:12;;;;;;;17.35;12.82;;;;;;;7.80;69.98;101703.69;5071412;28;20460;-41
2021/04/21 02:50:46;;;;;;;17.30;13.60;;;;;;;7.77;70.63;101704.91;5070976;28;20404;-40
2021/04/21 02:53:42;;;;;;;15.13;12.57;;;;;;;7.82;70.39;101701.66;5070788;28;20052;-40
2021/04/21 02:56:19;;;;;;;20.02;14.38;;;;;;;7.73;71.11;101703.63;5071185;28;20127;-40
2021/04/21 02:59:10;;;;;;;16.83;13.30;;;;;;;7.84;70.94;101696.88;5070988;28;20032;-40
2021/04/21 03:02:14;;;;;;;16.45;13.60;;;;;;;7.86;70.69;101693.00;5071255;28;20043;-40
2021/04/21 03:05:03;;;;;;;19.65;14.13;;;;;;;7.86;71.15;101698.38;5011090;28;20037;-40
2021/04/21 03:07:56;;;;;;;22.50;13.95;;;;;;;7.82;71.16;101694.41;5011494;28;20060;-40
2021/04/21 03:10:25;;;;;;;18.65;13.93;;;;;;;7.95;71.39;101697.22;5062731;28;20048;-40
2021/04/21 03:13:07;;;;;;;17.45;14.48;;;;;;;7.94;71.22;101692.84;5090863;28;20031;-40
2021/04/21 03:15:36;;;;;;;20.85;15.82;;;;;;;7.85;71.52;101699.38;5090872;28;20044;-40
2021/04/21 03:18:06;;;;;;;20.85;15.18;;;;;;;7.91;72.05;101703.19;5091134;28;20028;-40
2021/04/21 03:20:33;;;;;;;21.20;15.60;;;;;;;7.98;71.53;101693.28;5090622;28;20430;-40
2021/04/21 03:23:02;;;;;;;20.52;16.95;;;;;;;7.96;71.43;101698.88;5090565;28;20036;-40
2021/04/21 03:25:32;;;;;;;20.75;17.38;;;;;;;7.87;72.67;101700.03;5091152;28;20074;-40
2021/04/21 03:28:00;;;;;;;21.55;16.77;;;;;;;7.91;72.43;101701.31;5090763;28;20040;-40
2021/04/21 03:30:29;;;;;;;19.67;16.63;;;;;;;7.86;72.66;101690.31;5091129;28;20028;-40
2021/04/21 03:33:06;;;;;;;28.02;15.88;;;;;;;7.85;72.82;101698.56;5090753;28;20047;-40
2021/04/21 03:35:33;;;;;;;18.95;15.80;;;;;;;7.89;73.36;101692.59;5091060;28;20054;-40
2021/04/21 03:38:06;;;;;;;18.83;15.70;;;;;;;7.87;73.38;101696.50;5090590;28;20036;-40
2021/04/21 03:40:32;;;;;;;23.77;17.58;;;;;;;7.83;73.66;101687.97;5119378;28;20053;-40
2021/04/21 03:42:59;;;;;;;21.55;17.63;;;;;;;7.91;72.80;101685.16;5133661;27;20478;-40
2021/04/21 03:45:24;;;;;;;18.38;15.35;;;;;;;7.92;74.01;101686.81;5133794;27;20049;-40
2021/04/21 03:47:50;;;;;;;19.30;16.73;;;;;;;7.97;72.94;101688.94;5133639;27;20019;-40
2021/04/21 03:50:17;;;;;;;20.70;18.02;;;;;;;8.00;73.92;101686.72;5134962;27;20042;-40
2021/04/21 03:52:46;;;;;;;23.02;18.60;;;;;;;8.02;73.87;101688.38;5137362;27;20474;-40
2021/04/21 03:55:13;;;;;;;23.05;17.25;;;;;;;8.02;73.53;101685.66;5137880;27;20051;-40
2021/04/21 03:57:43;;;;;;;23.63;18.75;;;;;;;7.97;74.23;101688.94;5137599;27;20015;-40
2021/04/21 04:00:13;;;;;;;21.25;17.27;;;;;;;8.07;73.52;101694.00;5137311;27;20473;-40
2021/04/21 04:02:43;;;;;;;24.58;18.83;;;;;;;7.91;74.19;101689.72;5137160;27;20030;-40
2021/04/21 04:05:11;;;;;;;22.83;18.00;;;;;;;7.93;74.26;101693.03;5137788;27;20027;-40
2021/04/21 04:07:41;;;;;;;24.05;18.77;;;;;;;7.97;74.43;101697.03;5136834;27;20478;-40
2021/04/21 04:10:11;;;;;;;24.05;19.13;;;;;;;7.98;73.89;101698.69;5137866;27;20023;-40
2021/04/21 04:12:40;;;;;;;23.23;18.92;;;;;;;7.98;74.60;101696.00;5137541;27;20042;-40
2021/04/21 04:15:08;;;;;;;25.13;18.90;;;;;;;7.90;74.47;101693.41;5136674;27;20028;-40
2021/04/21 04:17:35;;;;;;;21.15;18.02;;;;;;;7.92;73.52;101692.22;5136903;27;20411;-40
2021/04/21 04:20:02;;;;;;;24.67;18.98;;;;;;;7.81;74.34;101703.50;5137256;27;20092;-40
2021/04/21 04:22:32;;;;;;;24.83;19.88;;;;;;;7.79;74.95;101702.84;5136779;27;20023;-40
2021/04/21 04:25:01;;;;;;;21.52;18.73;;;;;;;7.79;75.07;101692.06;5136067;27;20110;-40
2021/04/21 04:27:29;;;;;;;25.38;21.17;;;;;;;7.78;75.50;101703.06;5136963;27;20038;-40
2021/04/21 04:29:56;;;;;;;23.15;18.92;;;;;;;7.81;75.19;101703.50;5136718;27;20027;-40
2021/04/21 04:32:24;;;;;;;24.40;20.67;;;;;;;7.80;75.51;101701.81;5136576;27;20036;-40
2021/04/21 04:34:55;;;;;;;23.30;19.42;;;;;;;7.77;74.62;101704.91;5136845;27;20027;-40
2021/04/21 04:37:22;;;;;;;23.63;20.63;;;;;;;7.72;75.88;101712.72;5137407;27;20328;-40
2021/04/21 04:39:49;;;;;;;24.70;20.67;;;;;;;7.80;75.40;101709.06;5136794;27;20106;-40
2021/04/21 04:42:15;;;;;;;;;;;;;;;7.85;73.74;101707.47;5137557;27;20039;-40
2021/04/21 04:44:43;;;;;;;27.17;19.25;;;;;;;7.72;75.42;101710.88;5137258;27;20274;-40
2021/04/21 04:47:12;;;;;;;25.58;21.13;;;;;;;7.63;76.20;101714.69;5137238;27;20084;-40
2021/04/21 04:49:45;;;;;;;26.50;21.60;;;;;;;7.56;76.45;101712.94;5137000;27;20069;-40
2021/04/21 04:52:12;;;;;;;26.58;21.30;;;;;;;7.57;77.13;101717.31;5136073;27;20467;-40
2021/04/21 04:54:39;;;;;;;29.15;22.67;;;;;;;7.58;77.67;101722.50;5136707;27;20073;-40
2021/04/21 04:57:06;;;;;;;26.05;21.98;;;;;;;7.59;77.15;101726.03;5136223;27;20481;-40
2021/04/21 04:59:33;;;;;;;29.85;21.98;;;;;;;7.56;77.93;101724.53;5136383;27;20027;-40
2021/04/21 05:02:00;;;;;;;28.95;22.33;;;;;;;7.53;77.94;101726.78;5134853;27;20110;-40
2021/04/21 05:04:32;;;;;;;27.00;22.45;;;;;;;7.57;76.98;101726.22;5135744;27;20034;-40
2021/04/21 05:07:02;;;;;;;30.48;24.45;;;;;;;7.54;77.67;101731.16;5136613;27;20027;-40
2021/04/21 05:09:31;;;;;;;29.40;24.15;;;;;;;7.59;77.71;101736.81;5136232;27;20019;-40
2021/04/21 05:11:58;;;;;;;29.40;24.15;;;;;;;7.56;77.59;101726.41;5135741;27;20024;-40
2021/04/21 05:14:24;;;;;;;29.23;23.77;;;;;;;7.57;78.05;101737.00;5136448;27;20038;-40
2021/04/21 05:16:53;;;;;;;27.70;24.55;;;;;;;7.64;77.79;101743.28;5135991;27;20344;-40
2021/04/21 05:19:49;;;;;;;30.00;25.77;;;;;;;7.66;77.05;101737.69;5135356;27;20027;-40
2021/04/21 05:22:52;;;;;;;29.90;23.80;;;;;;;7.61;77.19;101745.50;5135899;27;20034;-40
2021/04/21 05:25:45;;;;;;;27.52;23.92;;;;;;;7.56;77.41;101750.63;5135668;27;20031;-40
2021/04/21 05:28:37;;;;;;;28.42;23.65;;;;;;;7.61;77.77;101753.59;5136249;27;20027;-40
2021/04/21 05:31:28;;;;;;;26.45;23.08;;;;;;;7.61;76.75;101751.75;5136081;27;20115;-40
2021/04/21 05:34:25;;;;;;;28.35;24.38;;;;;;;7.61;77.59;101751.75;5135303;27;20039;-40
2021/04/21 05:37:17;;;;;;;27.48;23.88;;;;;;;7.71;76.88;101751.41;5135443;27;20023;-40
2021/04/21 05:40:30;;;;;;;30.92;24.17;;;;;;;7.72;77.59;101751.25;5135035;27;20359;-40
2021/04/21 05:43:08;;;;;;;29.05;24.02;;;;;;;7.82;76.85;101752.81;5134973;27;20076;-40
2021/04/21 05:46:15;;;;;;;29.42;25.80;;;;;;;7.87;76.26;101755.75;5135463;27;20039;-40
2021/04/21 05:49:05;;;;;;;32.47;26.10;;;;;;;7.92;77.64;101750.63;5071408;28;20066;-40
2021/04/21 05:52:25;;;;;;;30.30;25.60;;;;;;;8.12;76.37;101750.84;5071736;28;20350;-41
2021/04/21 05:55:03;;;;;;;30.02;25.40;;;;;;;8.13;76.94;101758.72;5011714;28;20054;-41
2021/04/21 05:58:05;;;;;;;32.00;26.25;;;;;;;8.29;76.71;101763.00;5012062;28;20037;-40
2021/04/21 06:01:08;;;;;;;31.02;25.45;;;;;;;8.38;76.73;101759.19;5011921;28;20069;-41
2021/04/21 06:03:37;;;;;;;28.92;25.10;;;;;;;8.43;76.33;101755.91;5012343;28;20046;-41
2021/04/21 06:06:03;;;;;;;29.52;25.08;;;;;;;8.47;77.11;101765.25;5012183;28;20136;-41
2021/04/21 06:08:30;;;;;;;28.02;23.95;;;;;;;8.56;75.61;101756.00;5011521;28;20426;-41
2021/04/21 06:10:55;;;;;;;28.83;23.70;;;;;;;8.60;75.83;101754.59;5011678;28;20123;-41
2021/04/21 06:13:29;;;;;;;26.27;23.47;;;;;;;8.70;75.73;101759.66;5011048;28;20045;-41
2021/04/21 06:15:54;;;;;;;27.13;24.15;;;;;;;8.74;75.42;101761.75;5011382;28;20141;-41
2021/04/21 06:18:21;;;;;;;29.05;24.55;;;;;;;8.81;75.04;101767.19;5011933;28;20065;-41
2021/04/21 06:20:47;;;;;;;29.30;24.77;;;;;;;8.87;75.64;101765.56;5011886;28;20034;-41
2021/04/21 06:23:22;;;;;;;30.98;25.77;;;;;;;8.97;75.79;101766.03;5011664;28;20057;-41
2021/04/21 06:25:50;;;;;;;32.20;26.25;;;;;;;9.03;76.32;101759.88;5055346;28;20048;-41
2021/04/21 06:28:21;;;;;;;30.80;25.50;;;;;;;9.13;75.21;101764.91;5109012;27;20035;-41
2021/04/21 06:30:49;;;;;;;31.10;24.05;;;;;;;9.27;74.29;101769.31;5134755;27;20023;-41
2021/04/21 06:33:15;;;;;;;29.42;25.90;;;;;;;9.30;74.78;101768.94;5134425;27;20432;-41
2021/04/21 06:35:42;;;;;;;33.75;27.08;;;;;;;9.41;74.52;101771.06;5134373;27;20034;-41
2021/04/21 06:38:08;;;;;;;33.72;27.00;;;;;;;9.48;75.09;101766.53;5134892;27;20075;-41
2021/04/21 06:40:38;;;;;;;34.45;28.98;;;;;;;9.48;75.17;101760.31;5134671;27;20024;-41
2021/04/21 06:43:04;;;;;;;32.25;26.33;;;;;;;9.60;74.08;101769.47;5134385;27;20023;-41
2021/04/21 06:45:36;;;;;;;33.33;28.10;;;;;;;9.70;74.33;101763.69;5134140;27;20483;-41
2021/04/21 06:48:04;;;;;;;31.98;26.17;;;;;;;9.80;73.32;101766.84;5134317;27;20030;-41
2021/04/21 06:50:34;;;;;;;31.77;25.80;;;;;;;9.89;73.18;101770.19;5134359;27;20069;-41
2021/04/21 06:53:04;;;;;;;30.15;26.30;;;;;;;9.97;73.59;101773.56;5134779;27;20031;-41
2021/04/21 06:55:32;;;;;;;31.50;27.50;;;;;;;10.10;73.32;101770.03;5135317;27;20059;-41
2021/04/21 06:57:57;;;;;;;32.08;27.15;;;;;;;10.12;73.14;101780.66;5134733;27;20027;-41
2021/04/21 07:00:25;;;;;;;32.80;26.50;;;;;;;10.17;72.72;101780.88;5133952;27;20031;-41
2021/04/21 07:02:59;;;;;;;33.35;26.40;;;;;;;10.28;72.51;101780.28;5134174;27;20275;-41
2021/04/21 07:05:34;;;;;;;33.35;26.58;;;;;;;10.31;72.48;101780.72;5135253;27;20359;-41
2021/04/21 07:08:09;;;;;;;32.47;27.02;;;;;;;10.35;71.93;101786.56;5134139;27;20463;-41
2021/04/21 07:10:37;;;;;;;35.60;25.45;;;;;;;10.45;72.05;101791.56;5133852;28;20562;-41
2021/04/21 07:13:06;;;;;;;30.27;25.02;;;;;;;10.47;70.82;101794.88;5134266;27;20021;-41
2021/04/21 07:15:34;;;;;;;29.92;24.42;;;;;;;10.57;70.93;101790.72;5134058;27;20110;-41
2021/04/21 07:18:00;;;;;;;28.63;22.52;;;;;;;10.72;70.62;101795.06;5133731;27;20023;-41
2021/04/21 07:20:26;;;;;;;28.33;22.75;;;;;;;10.75;70.16;101787.38;5134874;27;20425;-41
2021/04/21 07:22:52;;;;;;;;;;;;;;;10.92;70.03;101792.34;5134427;27;20055;-41
2021/04/21 07:25:19;;;;;;;27.13;21.58;;;;;;;10.90;69.91;101797.16;5134935;27;19960;-41
2021/04/21 07:27:50;;;;;;;25.92;20.45;;;;;;;10.96;69.61;101799.84;5138515;27;20027;-41
2021/04/21 07:30:24;;;;;;;27.75;22.00;;;;;;;11.04;69.71;101796.94;5138261;27;20035;-40
2021/04/21 07:32:50;;;;;;;22.35;19.33;;;;;;;11.09;68.25;101805.25;5137959;27;20068;-41
2021/04/21 07:35:22;;;;;;;20.80;18.60;;;;;;;11.14;68.71;101801.06;5138152;27;20023;-41
2021/04/21 07:37:50;;;;;;;22.60;18.35;;;;;;;11.22;67.88;101803.53;5138136;27;20038;-41
2021/04/21 07:40:24;;;;;;;21.55;17.35;;;;;;;11.31;67.82;101797.69;5137837;27;20053;-41
2021/04/21 07:42:50;;;;;;;20.33;17.80;;;;;;;11.36;67.84;101805.16;5138271;27;20096;-41
2021/04/21 07:45:20;;;;;;;22.10;18.67;;;;;;;11.38;68.02;101808.50;5138309;27;20032;-41
2021/04/21 07:47:45;;;;;;;19.88;17.83;;;;;;;11.39;67.63;101803.94;5137356;27;20471;-41
2021/04/21 07:50:11;;;;;;;21.00;16.75;;;;;;;11.45;67.38;101800.34;5138013;27;20074;-41
2021/04/21 07:52:37;;;;;;;19.83;16.17;;;;;;;11.54;66.58;101812.63;5137262;27;20490;-41
2021/04/21 07:55:13;;;;;;;16.77;14.93;;;;;;;11.56;65.80;101800.50;5136514;27;20101;-41
2021/04/21 07:57:40;;;;;;;16.98;14.13;;;;;;;11.68;65.41;101808.81;5137528;27;20110;-41
2021/04/21 08:00:08;;;;;;;14.75;12.40;;;;;;;11.69;62.42;101810.47;5137413;27;20110;-41
2021/04/21 08:02:35;;;;;;;15.88;12.32;;;;;;;11.76;62.53;101810.44;5137588;27;20023;-41
2021/04/21 08:05:02;;;;;;;;;;;;;;;11.92;63.52;101803.75;5138598;27;20027;-41
2021/04/21 08:07:30;;;;;;;15.05;11.20;;;;;;;11.88;61.49;101811.47;5136904;27;20350;-41
2021/04/21 08:09:57;;;;;;;14.52;11.93;;;;;;;11.90;61.24;101820.19;5137151;27;20023;-41
2021/04/21 08:12:27;;;;;;;14.68;11.95;;;;;;;11.99;61.83;101816.19;5137036;27;20034;-41
2021/04/21 08:14:58;;;;;;;15.07;12.25;;;;;;;12.11;62.17;101814.47;5137334;27;20348;-41
2021/04/21 08:17:23;;;;;;;14.90;12.32;;;;;;;12.16;60.88;101816.53;5137054;27;20114;-41
2021/04/21 08:19:58;;;;;;;17.20;12.50;;;;;;;12.29;61.59;101812.91;5137050;27;20070;-41
2021/04/21 08:22:28;;;;;;;16.33;11.75;;;;;;;12.37;60.89;101823.50;5137014;27;20079;-41
2021/04/21 08:24:56;;;;;;;15.20;11.93;;;;;;;12.47;60.78;101828.44;5137177;27;20055;-41
2021/04/21 08:27:25;;;;;;;15.10;11.65;;;;;;;12.56;59.65;101825.22;5137308;27;20027;-41
2021/04/21 08:29:51;;;;;;;14.68;12.18;;;;;;;12.57;59.07;101824.16;5137080;27;20038;-41
2021/04/21 08:32:19;;;;;;;;;;;;;;;12.72;59.55;101831.16;5137395;27;20091;-41
2021/04/21 08:34:46;;;;;;;15.73;11.55;;;;;;;12.61;59.18;101827.28;5136666;27;19911;-41
2021/04/21 08:37:12;;;;;;;14.43;11.65;;;;;;;12.82;58.77;101826.06;5136325;27;20045;-41
2021/04/21 08:39:38;;;;;;;15.10;12.50;;;;;;;12.84;58.28;101829.41;5137396;27;20027;-41
2021/04/21 08:42:06;;;;;;;15.50;12.10;;;;;;;12.79;58.48;101838.22;5136800;27;20110;-41
2021/04/21 08:44:36;;;;;;;16.60;13.55;;;;;;;12.83;58.70;101836.72;5136604;27;20118;-41
2021/04/21 08:47:03;;;;;;;14.43;12.82;;;;;;;12.95;59.25;101831.38;5136477;27;20035;-41
2021/04/21 08:49:30;;;;;;;13.98;12.48;;;;;;;13.14;58.63;101832.25;5136769;27;20079;-41
2021/04/21 08:51:58;;;;;;;14.45;10.88;;;;;;;13.25;55.99;101836.16;5135127;27;20390;-41
2021/04/21 08:54:26;;;;;;;13.10;11.25;;;;;;;13.29;55.68;101837.38;5136362;27;20047;-41
2021/04/21 08:56:53;;;;;;;16.63;12.52;;;;;;;13.34;55.29;101840.22;5136646;27;20043;-41
2021/04/21 08:59:19;;;;;;;12.98;11.05;;;;;;;13.42;55.69;101841.81;5136177;27;20451;-41
2021/04/21 09:01:45;;;;;;;14.32;11.45;;;;;;;13.55;55.55;101852.53;5137050;27;20059;-41
2021/04/21 09:04:16;;;;;;;13.88;12.40;;;;;;;13.56;55.33;101859.63;5136888;27;20058;-41
2021/04/21 09:06:43;;;;;;;15.73;13.02;;;;;;;13.67;55.54;101850.75;5136376;27;20031;-39
2021/04/21 09:09:09;;;;;;;14.38;12.43;;;;;;;13.75;55.44;101849.59;5135744;27;20031;-39
2021/04/21 09:11:34;;;;;;;16.02;12.52;;;;;;;13.88;56.10;101854.88;5136626;27;20031;-39
2021/04/21 09:14:00;;;;;;;15.90;12.47;;;;;;;13.86;54.12;101848.84;5136510;27;20026;-39
2021/04/21 09:16:25;;;;;;;16.33;12.30;;;;;;;13.88;54.08;101854.88;5136542;27;20034;-39
2021/04/21 09:18:51;;;;;;;15.05;11.82;;;;;;;14.02;54.51;101848.19;5135816;27;20027;-39
2021/04/21 09:21:20;;;;;;;13.80;11.40;;;;;;;14.11;53.97;101860.44;5135277;27;20027;-39
2021/04/21 09:23:47;;;;;;;13.68;11.15;;;;;;;14.20;53.36;101860.09;5135735;27;20088;-39
2021/04/21 09:26:18;;;;;;;14.20;12.15;;;;;;;14.33;52.97;101849.03;5135708;27;20038;-39
2021/04/21 09:28:47;;;;;;;12.95;11.48;;;;;;;14.40;53.08;101853.31;5135333;27;20027;-39
2021/04/21 09:31:18;;;;;;;15.65;11.98;;;;;;;14.48;53.01;101851.34;5135635;27;20026;-39
2021/04/21 09:33:45;;;;;;;14.02;10.68;;;;;;;14.55;51.71;101857.53;5135493;27;20432;-39
2021/04/21 09:36:11;;;;;;;13.10;10.85;;;;;;;14.75;52.28;101860.78;5135840;27;20019;-39
2021/04/21 09:38:37;;;;;;;12.48;10.35;;;;;;;14.77;50.66;101855.91;5135533;27;20383;-39
2021/04/21 09:41:16;;;;;;;13.20;10.95;;;;;;;14.62;50.89;101867.25;5135698;27;20102;-39
2021/04/21 09:43:42;;;;;;;11.30;10.10;;;;;;;14.63;49.40;101862.63;5136135;27;20030;-39
2021/04/21 09:46:19;;;;;;;16.02;10.75;;;;;;;14.69;49.91;101864.44;5136168;27;20040;-39
2021/04/21 09:48:46;;;;;;;13.18;10.93;;;;;;;14.85;50.06;101868.38;5134734;27;20027;-39
2021/04/21 09:51:17;;;;;;;12.95;9.20;;;;;;;14.96;48.48;101867.53;5135713;27;20059;-39
2021/04/21 09:53:44;;;;;;;13.48;9.98;;;;;;;15.02;48.03;101872.03;5134969;27;20027;-39
2021/04/21 09:56:09;;;;;;;12.85;9.20;;;;;;;15.18;47.52;101868.63;5135948;27;20047;-39
2021/04/21 09:58:48;;;;;;;13.07;10.30;;;;;;;15.34;48.29;101867.09;5133448;27;20043;-39
2021/04/21 10:01:27;;;;;;;11.20;9.32;;;;;;;15.48;48.55;101867.69;5135481;27;20027;-39
2021/04/21 10:04:24;;;;;;;12.80;10.20;;;;;;;15.53;48.12;101870.50;5134949;27;20024;-39
2021/04/21 10:06:54;;;;;;;10.70;9.00;;;;;;;15.63;48.98;101870.75;5130468;27;20042;-40
2021/04/21 10:09:30;;;;;;;13.02;11.13;;;;;;;15.55;48.68;101859.34;5134841;27;20056;-39
2021/04/21 10:12:20;;;;;;;16.33;11.95;;;;;;;15.62;48.81;101873.72;5134829;27;20467;-39
2021/04/21 10:15:01;;;;;;;11.48;10.20;;;;;;;15.66;46.67;101861.25;5134442;27;20027;-39
2021/04/21 10:17:47;;;;;;;14.00;11.05;;;;;;;15.86;47.14;101866.31;5135489;27;20030;-40
2021/04/21 10:20:15;;;;;;;12.82;10.32;;;;;;;15.84;46.25;101872.00;5134894;27;20483;-39
2021/04/21 10:22:41;;;;;;;12.50;10.15;;;;;;;15.99;46.59;101871.50;5135534;27;20363;-39
2021/04/21 10:25:09;;;;;;;14.93;10.88;;;;;;;16.04;47.43;101882.50;5134605;27;20023;-40
2021/04/21 10:27:35;;;;;;;15.45;11.93;;;;;;;15.92;47.22;101871.66;5134515;27;20023;-40
2021/04/21 10:30:02;;;;;;;16.33;12.63;;;;;;;15.96;47.65;101861.91;5135100;27;20080;-39
2021/04/21 10:32:28;;;;;;;12.05;10.75;;;;;;;16.01;47.68;101872.09;5135145;27;20052;-39
2021/04/21 10:34:54;;;;;;;17.17;11.75;;;;;;;15.95;47.51;101873.88;5134460;27;20072;-40
2021/04/21 10:37:20;;;;;;;12.68;11.13;;;;;;;15.90;46.49;101862.84;5134448;27;20027;-40
2021/04/21 10:39:46;;;;;;;17.70;11.38;;;;;;;15.88;45.57;101875.09;5134481;27;20106;-40
2021/04/21 10:42:16;;;;;;;17.85;11.50;;;;;;;15.92;46.22;101868.09;5134066;27;20031;-40
2021/04/21 10:44:46;;;;;;;12.80;11.27;;;;;;;16.02;46.73;101875.66;5134134;27;20439;-39
2021/04/21 10:47:14;;;;;;;13.45;11.30;;;;;;;16.09;45.02;101879.88;5134311;27;20035;-40
2021/04/21 10:49:58;;;;;;;14.80;11.20;;;;;;;16.06;45.48;101874.09;5134862;27;20031;-40
2021/04/21 10:52:26;;;;;;;15.27;12.57;;;;;;;15.96;45.28;101881.00;5135018;27;20075;-45
2021/04/21 10:54:54;;;;;;;13.73;10.65;;;;;;;15.87;44.10;101881.63;5134079;27;20357;-40
2021/04/21 10:57:22;;;;;;;13.43;10.90;;;;;;;15.82;44.03;101885.06;5134571;27;20023;-40
2021/04/21 11:00:06;;;;;;;13.05;11.23;;;;;;;15.96;44.91;101881.00;5135992;27;20027;-40
2021/04/21 11:02:41;;;;;;;20.48;11.68;;;;;;;15.95;44.59;101882.06;5138928;27;20031;-40
2021/04/21 11:05:12;;;;;;;13.35;10.80;;;;;;;16.01;44.46;101880.28;5138655;27;20066;-40
2021/04/21 11:07:39;;;;;;;14.60;11.13;;;;;;;16.14;44.95;101879.97;5138614;27;20027;-40
2021/04/21 11:10:28;;;;;;;14.30;10.52;;;;;;;16.27;44.50;101888.97;5138322;27;20091;-40
2021/04/21 11:12:54;;;;;;;15.48;12.30;;;;;;;16.07;44.17;101892.13;5137740;27;20031;-40
2021/04/21 11:15:38;;;;;;;16.60;11.93;;;;;;;16.15;45.37;101889.00;5138099;27;20030;-39
2021/04/21 11:18:12;;;;;;;14.15;11.82;;;;;;;16.29;44.93;101895.81;5138047;27;20079;-40
2021/04/21 11:20:43;;;;;;;14.88;12.00;;;;;;;16.43;45.54;101889.00;5138541;27;20044;-40
2021/04/21 11:23:45;;;;;;;14.85;12.02;;;;;;;16.49;45.42;101881.72;5137962;27;20064;-40
2021/04/21 11:26:23;;;;;;;13.38;10.70;;;;;;;16.64;44.52;101882.03;5138358;27;20023;-40
2021/04/21 11:29:01;;;;;;;13.43;11.10;;;;;;;16.81;44.46;101881.22;5138253;27;20035;-40
2021/04/21 11:31:42;;;;;;;13.10;11.43;;;;;;;16.77;45.15;101882.78;5138228;27;20436;-40
2021/04/21 11:34:13;;;;;;;12.85;11.38;;;;;;;16.58;44.77;101888.44;5137961;27;20084;-40
2021/04/21 11:36:46;;;;;;;12.95;10.90;;;;;;;16.68;43.53;101877.69;5138331;27;20053;-40
2021/04/21 11:39:12;;;;;;;12.45;11.07;;;;;;;16.87;43.11;101881.06;5137790;27;20118;-40
2021/04/21 11:41:47;;;;;;;13.43;10.95;;;;;;;17.06;43.38;101883.56;5138040;27;20046;-40